Time;durP1;ratioP1;P1;durP2;ratioP2;P2;SDS_P1;SDS_P2;PMS_P1;PMS_P2;Temp;Humidity;BMP_temperature;BMP_pressure;BME280_temperature;BME280_humidity;BME280_pressure;Samples;Min_cycle;Max_cycle;Signal;HPM_P1;HPM_P2
2024/04/20 00:00:31;;;;;;;0.00;0.00;;;19.80;48.30;;;;;;5378378;26;20318;-52
2024/04/20 00:03:03;;;;;;;0.10;0.10;;;19.80;48.20;;;;;;5378385;26;20337;-49
2024/04/20 00:05:35;;;;;;;0.00;0.00;;;19.80;48.30;;;;;;5379066;26;20252;-47
2024/04/20 00:08:08;;;;;;;0.00;0.00;;;19.80;48.20;;;;;;5379227;26;20335;-46
2024/04/20 00:10:40;;;;;;;0.00;0.00;;;19.80;48.30;;;;;;5379312;26;20214;-46
2024/04/20 00:13:16;;;;;;;0.08;0.08;;;19.80;48.30;;;;;;5378748;26;20225;-45
2024/04/20 00:15:48;;;;;;;0.00;0.00;;;19.80;48.20;;;;;;5378532;26;20248;-47
2024/04/20 00:18:20;;;;;;;0.00;0.00;;;19.90;48.30;;;;;;5378211;26;20230;-45
2024/04/20 00:20:52;;;;;;;0.00;0.00;;;19.80;48.20;;;;;;5378900;26;20535;-46
2024/04/20 00:23:25;;;;;;;0.00;0.00;;;19.80;48.20;;;;;;5381057;26;20218;-48
2024/04/20 00:25:57;;;;;;;0.00;0.00;;;19.90;48.30;;;;;;5382528;26;20218;-53
2024/04/20 00:28:32;;;;;;;0.00;0.00;;;19.90;48.40;;;;;;5382594;26;20230;-46
2024/04/20 00:31:05;;;;;;;0.00;0.00;;;19.90;48.60;;;;;;5382404;26;20213;-47
2024/04/20 00:33:38;;;;;;;0.00;0.00;;;19.90;48.70;;;;;;5382763;26;20318;-47
2024/04/20 00:36:11;;;;;;;0.10;0.10;;;19.90;48.60;;;;;;5382491;26;20611;-47
2024/04/20 00:38:44;;;;;;;0.05;0.05;;;19.90;48.70;;;;;;5382568;26;20706;-46
2024/04/20 00:41:17;;;;;;;0.00;0.00;;;19.90;48.70;;;;;;5381278;26;20283;-47
2024/04/20 00:43:52;;;;;;;0.10;0.10;;;20.00;48.80;;;;;;5381526;26;20261;-46
2024/04/20 00:46:26;;;;;;;0.00;0.00;;;20.00;48.90;;;;;;5381318;26;20265;-47
2024/04/20 00:49:01;;;;;;;0.00;0.00;;;20.00;48.80;;;;;;5381673;26;20616;-47
2024/04/20 00:51:33;;;;;;;0.10;0.10;;;20.00;48.80;;;;;;5378262;26;20226;-47
2024/04/20 00:54:06;;;;;;;0.00;0.00;;;20.00;48.80;;;;;;5382701;26;20219;-47
2024/04/20 00:56:40;;;;;;;0.00;0.00;;;20.00;48.80;;;;;;5382146;26;20733;-46
2024/04/20 00:59:17;;;;;;;0.00;0.00;;;20.00;48.90;;;;;;5381654;26;20230;-47
2024/04/20 01:01:50;;;;;;;0.00;0.00;;;20.00;48.70;;;;;;5380872;26;20273;-46
2024/04/20 01:04:22;;;;;;;0.00;0.00;;;20.00;48.70;;;;;;5381857;26;20269;-46
2024/04/20 01:06:54;;;;;;;0.00;0.00;;;20.00;48.60;;;;;;5382297;26;20219;-46
2024/04/20 01:09:27;;;;;;;0.00;0.00;;;20.10;48.70;;;;;;5382167;26;20465;-47
2024/04/20 01:11:59;;;;;;;0.00;0.00;;;20.00;48.70;;;;;;5381235;26;20218;-47
2024/04/20 01:14:34;;;;;;;0.00;0.00;;;20.10;48.80;;;;;;5381207;26;20542;-46
2024/04/20 01:17:07;;;;;;;0.00;0.00;;;20.10;48.80;;;;;;5381183;26;20310;-46
2024/04/20 01:19:39;;;;;;;0.00;0.00;;;20.10;49.40;;;;;;5381333;26;20368;-46
2024/04/20 01:22:12;;;;;;;0.00;0.00;;;20.10;48.80;;;;;;5381556;26;20230;-48
2024/04/20 01:24:45;;;;;;;0.10;0.10;;;20.10;48.90;;;;;;5381841;26;20222;-45
2024/04/20 01:27:21;;;;;;;0.00;0.00;;;20.20;48.90;;;;;;5381210;26;20215;-46
2024/04/20 01:29:53;;;;;;;0.10;0.10;;;20.20;48.90;;;;;;5381000;26;20446;-46
2024/04/20 01:32:28;;;;;;;0.03;0.03;;;20.20;48.90;;;;;;5380877;26;20310;-47
2024/04/20 01:35:00;;;;;;;0.00;0.00;;;20.20;48.90;;;;;;5379650;26;20214;-45
2024/04/20 01:37:33;;;;;;;0.00;0.00;;;20.20;48.90;;;;;;5380398;26;20226;-47
2024/04/20 01:40:05;;;;;;;0.00;0.00;;;20.20;48.90;;;;;;5381500;26;20268;-47
2024/04/20 01:42:41;;;;;;;0.10;0.10;;;20.20;48.80;;;;;;5381600;26;20219;-47
2024/04/20 01:45:13;;;;;;;0.10;0.10;;;20.20;48.70;;;;;;5380304;26;20272;-48
2024/04/20 01:47:46;;;;;;;0.10;0.10;;;20.30;48.80;;;;;;5380784;26;20272;-47
2024/04/20 01:50:18;;;;;;;0.03;0.03;;;20.30;48.90;;;;;;5381343;26;20265;-47
2024/04/20 01:52:50;;;;;;;0.00;0.00;;;20.30;48.90;;;;;;5381399;26;20226;-48
2024/04/20 01:55:23;;;;;;;0.00;0.00;;;20.30;48.90;;;;;;5381727;26;20214;-46
2024/04/20 01:57:58;;;;;;;0.00;0.00;;;20.30;48.90;;;;;;5381315;26;20281;-47
2024/04/20 02:00:30;;;;;;;0.00;0.00;;;20.30;48.90;;;;;;5380274;26;20267;-47
2024/04/20 02:03:02;;;;;;;0.03;0.03;;;20.30;48.80;;;;;;5380510;26;20218;-47
2024/04/20 02:05:35;;;;;;;0.00;0.00;;;20.40;48.80;;;;;;5381027;26;20315;-48
2024/04/20 02:08:07;;;;;;;0.10;0.10;;;20.40;48.80;;;;;;5380642;26;20230;-47
2024/04/20 02:10:40;;;;;;;0.10;0.10;;;20.40;48.80;;;;;;5380694;26;20420;-52
2024/04/20 02:13:15;;;;;;;0.00;0.00;;;20.40;48.80;;;;;;5381041;26;20222;-47
2024/04/20 02:15:47;;;;;;;0.03;0.03;;;20.40;48.80;;;;;;5381138;26;20268;-47
2024/04/20 02:18:20;;;;;;;0.00;0.00;;;20.50;48.80;;;;;;5380678;26;20369;-46
2024/04/20 02:20:52;;;;;;;0.00;0.00;;;20.50;48.70;;;;;;5380049;26;20226;-49
2024/04/20 02:23:25;;;;;;;0.00;0.00;;;20.50;48.70;;;;;;5380584;26;20730;-46
2024/04/20 02:25:57;;;;;;;0.10;0.10;;;20.50;48.70;;;;;;5380484;26;20253;-46
2024/04/20 02:28:32;;;;;;;0.08;0.08;;;20.50;48.70;;;;;;5380363;26;20227;-47
2024/04/20 02:31:05;;;;;;;0.00;0.00;;;20.50;48.70;;;;;;5380848;26;20218;-47
2024/04/20 02:33:37;;;;;;;0.00;0.00;;;20.60;48.70;;;;;;5380539;26;20218;-47
2024/04/20 02:36:10;;;;;;;0.00;0.00;;;20.60;48.70;;;;;;5380092;26;20218;-46
2024/04/20 02:38:42;;;;;;;0.00;0.00;;;20.60;48.60;;;;;;5379715;26;20230;-46
2024/04/20 02:41:15;;;;;;;0.10;0.10;;;20.60;48.70;;;;;;5379842;26;20327;-47
2024/04/20 02:43:51;;;;;;;0.00;0.00;;;20.60;48.70;;;;;;5380443;26;20260;-47
2024/04/20 02:46:23;;;;;;;0.00;0.00;;;20.60;48.80;;;;;;5379726;26;20222;-47
2024/04/20 02:48:55;;;;;;;0.10;0.10;;;20.70;48.80;;;;;;5380574;26;20339;-48
2024/04/20 02:51:27;;;;;;;0.00;0.00;;;20.70;48.90;;;;;;5379784;26;20744;-47
2024/04/20 02:54:00;;;;;;;0.10;0.10;;;20.70;48.80;;;;;;5380133;26;20604;-47
2024/04/20 02:56:32;;;;;;;0.10;0.10;;;20.80;49.40;;;;;;5380193;26;20222;-48
2024/04/20 02:59:07;;;;;;;0.00;0.00;;;20.80;48.80;;;;;;5380197;26;20230;-45
2024/04/20 03:01:39;;;;;;;0.00;0.00;;;20.80;48.80;;;;;;5380455;26;20677;-47
2024/04/20 03:04:12;;;;;;;0.10;0.10;;;20.80;48.80;;;;;;5380190;26;20214;-46
2024/04/20 03:06:44;;;;;;;0.00;0.00;;;20.80;48.70;;;;;;5379730;26;20249;-49
2024/04/20 03:09:17;;;;;;;0.00;0.00;;;20.90;48.80;;;;;;5379596;26;20230;-47
2024/04/20 03:11:49;;;;;;;0.00;0.00;;;20.90;48.80;;;;;;5378953;26;20228;-46
2024/04/20 03:14:24;;;;;;;0.00;0.00;;;20.90;48.90;;;;;;5379688;26;20315;-45
2024/04/20 03:16:57;;;;;;;0.00;0.00;;;20.90;48.80;;;;;;5379739;26;20550;-46
2024/04/20 03:19:29;;;;;;;0.05;0.05;;;21.00;48.80;;;;;;5379668;26;20580;-47
2024/04/20 03:22:01;;;;;;;0.00;0.00;;;21.00;48.80;;;;;;5379768;26;20256;-47
2024/04/20 03:24:33;;;;;;;0.00;0.00;;;21.00;48.80;;;;;;5379702;26;20257;-48
2024/04/20 03:27:06;;;;;;;0.10;0.10;;;21.00;48.80;;;;;;5379781;26;20364;-46
2024/04/20 03:29:41;;;;;;;0.00;0.00;;;21.00;48.70;;;;;;5379531;26;20264;-46
2024/04/20 03:32:13;;;;;;;0.00;0.00;;;21.10;48.80;;;;;;5379090;26;20252;-46
2024/04/20 03:34:46;;;;;;;0.00;0.00;;;21.10;48.70;;;;;;5379002;26;20222;-47
2024/04/20 03:37:19;;;;;;;0.10;0.10;;;21.10;48.70;;;;;;5378961;26;20218;-47
2024/04/20 03:39:52;;;;;;;0.00;0.00;;;21.10;48.70;;;;;;5379466;26;20273;-47
2024/04/20 03:42:24;;;;;;;0.00;0.00;;;21.20;48.70;;;;;;5378639;26;20260;-47
2024/04/20 03:45:00;;;;;;;0.00;0.00;;;21.20;48.70;;;;;;5379423;26;20223;-46
2024/04/20 03:47:32;;;;;;;0.05;0.05;;;21.20;48.70;;;;;;5379014;26;20226;-47
2024/04/20 03:50:04;;;;;;;0.10;0.10;;;21.30;48.70;;;;;;5379450;26;20264;-47
2024/04/20 03:52:37;;;;;;;0.00;0.00;;;21.30;48.70;;;;;;5379453;26;20694;-48
2024/04/20 03:55:09;;;;;;;0.08;0.08;;;21.30;48.70;;;;;;5379534;26;20222;-46
2024/04/20 03:57:41;;;;;;;0.05;0.05;;;21.30;48.70;;;;;;5379734;26;20823;-47
2024/04/20 04:00:18;;;;;;;0.05;0.05;;;21.30;48.70;;;;;;5379865;26;20210;-48
2024/04/20 04:02:50;;;;;;;0.10;0.10;;;21.40;48.70;;;;;;5379844;26;20218;-48
2024/04/20 04:05:22;;;;;;;0.03;0.03;;;21.40;48.70;;;;;;5379636;26;20218;-47
2024/04/20 04:07:54;;;;;;;0.00;0.00;;;21.40;48.70;;;;;;5379223;26;20362;-46
2024/04/20 04:10:27;;;;;;;0.00;0.00;;;21.40;48.60;;;;;;5379254;26;20222;-48
2024/04/20 04:13:03;;;;;;;0.00;0.00;;;21.40;48.60;;;;;;5379261;26;20223;-46
2024/04/20 04:15:38;;;;;;;0.10;0.10;;;21.50;48.60;;;;;;5378896;26;20222;-48
2024/04/20 04:18:11;;;;;;;0.00;0.00;;;21.50;49.20;;;;;;5378893;26;20284;-47
2024/04/20 04:20:43;;;;;;;0.10;0.10;;;21.50;48.50;;;;;;5378611;26;20226;-46
2024/04/20 04:23:15;;;;;;;0.05;0.05;;;21.50;48.50;;;;;;5378710;26;20226;-46
2024/04/20 04:25:48;;;;;;;0.10;0.10;;;21.50;48.50;;;;;;5378110;26;20218;-46
2024/04/20 04:28:20;;;;;;;0.00;0.00;;;21.60;48.40;;;;;;5378752;26;20231;-47
2024/04/20 04:30:56;;;;;;;0.00;0.00;;;21.60;48.40;;;;;;5379156;26;20218;-46
2024/04/20 04:33:28;;;;;;;0.05;0.05;;;21.60;48.40;;;;;;5378623;26;20218;-46
2024/04/20 04:36:04;;;;;;;0.10;0.10;;;21.60;48.30;;;;;;5377915;26;20226;-49
2024/04/20 04:38:36;;;;;;;0.00;0.00;;;21.70;48.40;;;;;;5378549;26;20726;-49
2024/04/20 04:41:08;;;;;;;0.00;0.00;;;21.70;48.30;;;;;;5378851;26;20218;-49
2024/04/20 04:43:42;;;;;;;0.00;0.00;;;21.70;48.30;;;;;;5379050;26;20264;-50
2024/04/20 04:46:18;;;;;;;0.10;0.10;;;21.70;48.20;;;;;;5378612;26;20297;-49
2024/04/20 04:48:50;;;;;;;0.10;0.10;;;21.70;48.20;;;;;;5379279;26;20275;-50
2024/04/20 04:51:23;;;;;;;0.00;0.00;;;21.80;48.20;;;;;;5342946;26;20250;-51
2024/04/20 04:53:55;;;;;;;0.00;0.00;;;21.70;48.10;;;;;;5375324;26;20282;-51
2024/04/20 04:56:27;;;;;;;0.00;0.00;;;21.80;48.20;;;;;;5377742;26;20231;-49
2024/04/20 04:59:00;;;;;;;0.03;0.03;;;21.80;48.10;;;;;;5378613;26;20563;-46
2024/04/20 05:01:37;;;;;;;0.10;0.10;;;21.80;48.20;;;;;;5378438;26;20261;-47
2024/04/20 05:04:09;;;;;;;0.00;0.00;;;21.80;48.10;;;;;;5377877;26;20222;-47
2024/04/20 05:06:42;;;;;;;0.03;0.03;;;21.80;48.10;;;;;;5378263;26;20264;-49
2024/04/20 05:09:14;;;;;;;0.10;0.10;;;21.80;48.10;;;;;;5378552;26;20277;-46
2024/04/20 05:11:47;;;;;;;0.10;0.10;;;21.80;48.10;;;;;;5381479;26;20219;-48
2024/04/20 05:14:20;;;;;;;0.00;0.00;;;21.80;48.10;;;;;;5381516;26;20226;-47
2024/04/20 05:16:55;;;;;;;0.10;0.10;;;21.80;48.10;;;;;;5381718;26;20269;-47
2024/04/20 05:19:27;;;;;;;0.10;0.10;;;21.80;48.10;;;;;;5381450;26;20281;-46
2024/04/20 05:22:00;;;;;;;0.10;0.10;;;21.80;48.70;;;;;;5381308;26;20257;-46
2024/04/20 05:24:32;;;;;;;0.00;0.00;;;21.80;48.00;;;;;;5381436;26;20218;-48
2024/04/20 05:27:04;;;;;;;0.00;0.00;;;21.80;48.00;;;;;;5381422;26;20215;-48
2024/04/20 05:29:37;;;;;;;0.00;0.00;;;21.80;48.00;;;;;;5381398;26;20290;-46
2024/04/20 05:32:12;;;;;;;0.00;0.00;;;21.70;47.90;;;;;;5381352;26;20218;-47
2024/04/20 05:34:44;;;;;;;0.10;0.10;;;21.70;47.90;;;;;;5381452;26;20741;-47
2024/04/20 05:37:17;;;;;;;0.00;0.00;;;21.70;47.90;;;;;;5381528;26;20699;-47
2024/04/20 05:39:51;;;;;;;0.10;0.10;;;21.70;47.80;;;;;;5381401;26;20214;-47
2024/04/20 05:42:23;;;;;;;0.00;0.00;;;21.70;47.80;;;;;;5381209;26;20221;-48
2024/04/20 05:44:56;;;;;;;0.00;0.00;;;21.70;47.80;;;;;;5380821;26;20226;-48
2024/04/20 05:47:32;;;;;;;0.10;0.10;;;21.70;47.80;;;;;;5381737;26;20211;-47
2024/04/20 05:50:04;;;;;;;0.10;0.10;;;21.70;47.70;;;;;;5380852;26;20276;-46
2024/04/20 05:52:36;;;;;;;0.00;0.00;;;21.70;47.70;;;;;;5381346;26;20257;-48
2024/04/20 05:55:10;;;;;;;0.00;0.00;;;21.60;47.60;;;;;;5381602;26;20556;-48
2024/04/20 05:57:43;;;;;;;0.00;0.00;;;21.60;47.60;;;;;;5381532;26;20229;-47
2024/04/20 06:00:16;;;;;;;0.00;0.00;;;21.60;47.60;;;;;;5381077;26;20218;-47
2024/04/20 06:02:51;;;;;;;0.00;0.00;;;21.60;47.60;;;;;;5380908;26;20276;-47
2024/04/20 06:05:24;;;;;;;0.00;0.00;;;21.60;47.50;;;;;;5380843;26;20653;-49
2024/04/20 06:07:56;;;;;;;0.05;0.05;;;21.60;47.50;;;;;;5380894;26;20230;-46
2024/04/20 06:10:28;;;;;;;0.10;0.10;;;21.60;47.50;;;;;;5380665;26;20222;-47
2024/04/20 06:13:01;;;;;;;0.00;0.00;;;21.60;47.50;;;;;;5380173;26;20323;-49
2024/04/20 06:15:34;;;;;;;0.00;0.00;;;21.60;47.40;;;;;;5380691;26;20578;-48
2024/04/20 06:18:09;;;;;;;0.00;0.00;;;21.60;47.40;;;;;;5380858;26;20343;-49
2024/04/20 06:20:42;;;;;;;0.05;0.05;;;21.60;47.40;;;;;;5380388;26;20218;-47
2024/04/20 06:23:15;;;;;;;0.00;0.00;;;21.60;47.30;;;;;;5378963;26;20264;-48
2024/04/20 06:25:50;;;;;;;0.00;0.00;;;21.50;47.50;;;;;;5380675;26;20223;-46
2024/04/20 06:28:19;;;;;;;0.10;0.10;;;21.50;47.90;;;;;;5380451;26;20272;-46
2024/04/20 06:30:52;;;;;;;0.00;0.00;;;21.50;47.30;;;;;;5352108;26;20785;-48
2024/04/20 06:33:29;;;;;;;0.00;0.00;;;21.50;47.30;;;;;;5344665;26;20265;-46
2024/04/20 06:36:01;;;;;;;0.00;0.00;;;21.50;47.30;;;;;;5345039;26;20263;-50
2024/04/20 06:38:33;;;;;;;0.10;0.10;;;21.50;47.30;;;;;;5345478;26;20309;-48
2024/04/20 06:41:07;;;;;;;0.05;0.05;;;21.50;47.40;;;;;;5372058;26;20322;-47
2024/04/20 06:43:39;;;;;;;0.00;0.00;;;21.50;47.40;;;;;;5380179;26;20303;-49
2024/04/20 06:46:11;;;;;;;0.00;0.00;;;21.40;47.30;;;;;;5380225;26;20325;-47
2024/04/20 06:48:49;;;;;;;0.10;0.10;;;21.40;47.40;;;;;;5380085;26;20231;-48
2024/04/20 06:51:22;;;;;;;0.00;0.00;;;21.40;47.30;;;;;;5379048;26;20268;-46
2024/04/20 06:53:54;;;;;;;0.08;0.08;;;21.40;47.30;;;;;;5380244;26;20218;-48
2024/04/20 06:56:26;;;;;;;0.10;0.10;;;21.40;47.30;;;;;;5378892;26;20699;-46
2024/04/20 06:58:58;;;;;;;0.00;0.00;;;21.40;47.30;;;;;;5379681;26;20234;-46
2024/04/20 07:01:31;;;;;;;0.00;0.00;;;21.40;47.30;;;;;;5379653;26;20218;-50
2024/04/20 07:04:06;;;;;;;0.00;0.00;;;21.30;47.30;;;;;;5379807;26;20222;-47
2024/04/20 07:06:39;;;;;;;0.00;0.00;;;21.30;47.30;;;;;;5380684;26;20256;-47
2024/04/20 07:09:11;;;;;;;0.00;0.00;;;21.30;47.30;;;;;;5380489;26;20338;-47
2024/04/20 07:11:43;;;;;;;0.00;0.00;;;21.30;47.90;;;;;;5379796;26;20304;-46
2024/04/20 07:14:15;;;;;;;0.00;0.00;;;21.20;47.20;;;;;;5380180;26;20727;-47
2024/04/20 07:16:50;;;;;;;0.10;0.10;;;21.20;47.20;;;;;;5380218;26;20218;-46
2024/04/20 07:19:25;;;;;;;0.00;0.00;;;21.20;47.30;;;;;;5380023;26;20272;-46
2024/04/20 07:21:57;;;;;;;0.00;0.00;;;21.20;47.30;;;;;;5376602;26;20714;-47
2024/04/20 07:24:29;;;;;;;0.10;0.10;;;21.10;47.20;;;;;;5379565;26;20749;-48
2024/04/20 07:27:02;;;;;;;0.00;0.00;;;21.10;47.30;;;;;;5379623;26;20218;-46
2024/04/20 07:29:34;;;;;;;0.10;0.10;;;21.10;47.30;;;;;;5380143;26;20230;-46
2024/04/20 07:32:07;;;;;;;0.00;0.00;;;21.10;47.30;;;;;;5378622;26;20706;-48
2024/04/20 07:34:42;;;;;;;0.00;0.00;;;21.10;47.40;;;;;;5379649;26;20222;-46
2024/04/20 07:37:15;;;;;;;0.00;0.00;;;21.00;47.30;;;;;;5379679;26;20256;-45
2024/04/20 07:39:47;;;;;;;0.00;0.00;;;21.00;47.40;;;;;;5378812;26;20218;-45
2024/04/20 07:42:20;;;;;;;0.00;0.00;;;21.00;47.40;;;;;;5378883;26;20730;-48
2024/04/20 07:44:52;;;;;;;0.00;0.00;;;21.00;47.40;;;;;;5378814;26;20707;-48
2024/04/20 07:47:24;;;;;;;0.10;0.10;;;21.00;47.40;;;;;;5379576;26;20698;-47
2024/04/20 07:50:00;;;;;;;0.00;0.00;;;20.90;47.30;;;;;;5379564;26;20337;-48
2024/04/20 07:52:35;;;;;;;0.00;0.00;;;20.90;47.30;;;;;;5378096;26;20747;-47
2024/04/20 07:55:08;;;;;;;0.10;0.10;;;20.90;47.30;;;;;;5378961;26;20630;-47
2024/04/20 07:57:40;;;;;;;0.03;0.03;;;20.90;47.40;;;;;;5379976;26;20231;-48
2024/04/20 08:00:13;;;;;;;0.05;0.05;;;20.80;47.30;;;;;;5379277;26;20256;-49
2024/04/20 08:02:46;;;;;;;0.10;0.10;;;20.80;47.30;;;;;;5379329;26;20576;-47
2024/04/20 08:05:22;;;;;;;0.10;0.10;;;20.80;47.30;;;;;;5379204;26;20257;-48
2024/04/20 08:07:54;;;;;;;0.00;0.00;;;20.80;47.40;;;;;;5378806;26;20267;-48
2024/04/20 08:10:26;;;;;;;0.00;0.00;;;20.70;47.40;;;;;;5378469;26;20309;-46
2024/04/20 08:12:58;;;;;;;0.03;0.03;;;20.70;47.40;;;;;;5379348;26;20226;-46
2024/04/20 08:15:31;;;;;;;0.00;0.00;;;20.70;47.40;;;;;;5379136;26;20280;-47
2024/04/20 08:18:03;;;;;;;0.08;0.08;;;20.70;47.40;;;;;;5379234;26;20546;-49
2024/04/20 08:20:39;;;;;;;0.00;0.00;;;20.60;47.30;;;;;;5379389;26;20256;-47
2024/04/20 08:23:12;;;;;;;0.05;0.05;;;20.60;47.30;;;;;;5378612;26;20218;-45
2024/04/20 08:25:44;;;;;;;0.10;0.10;;;20.60;47.40;;;;;;5378230;26;20218;-46
2024/04/20 08:28:18;;;;;;;0.05;0.05;;;20.60;47.40;;;;;;5378675;26;20566;-46
2024/04/20 08:30:50;;;;;;;0.00;0.00;;;20.60;47.30;;;;;;5378437;26;20222;-49
2024/04/20 08:33:22;;;;;;;0.00;0.00;;;20.60;47.30;;;;;;5377668;26;20231;-46
2024/04/20 08:35:57;;;;;;;0.05;0.05;;;20.50;47.30;;;;;;5378194;26;20218;-47
2024/04/20 08:38:30;;;;;;;0.00;0.00;;;20.50;47.30;;;;;;5378414;26;20230;-46
2024/04/20 08:41:07;;;;;;;0.10;0.10;;;20.50;47.30;;;;;;5377499;26;20222;-47
2024/04/20 08:43:40;;;;;;;0.03;0.03;;;20.50;47.30;;;;;;5378632;26;20219;-47
2024/04/20 08:46:18;;;;;;;0.10;0.10;;;20.40;47.30;;;;;;5381910;26;20752;-48
2024/04/20 08:48:51;;;;;;;0.10;0.10;;;20.50;47.30;;;;;;5382472;26;20604;-47
2024/04/20 08:51:31;;;;;;;0.00;0.00;;;20.40;47.30;;;;;;5381990;26;20303;-46
2024/04/20 08:54:05;;;;;;;0.05;0.05;;;20.50;47.30;;;;;;5380617;26;20336;-46
2024/04/20 08:56:38;;;;;;;0.10;0.10;;;20.40;47.30;;;;;;5381866;26;20268;-49
2024/04/20 08:59:10;;;;;;;0.10;0.10;;;20.40;47.30;;;;;;5381872;26;20285;-48
2024/04/20 09:01:44;;;;;;;0.10;0.10;;;20.40;47.30;;;;;;5377628;26;20735;-52
2024/04/20 09:04:17;;;;;;;0.00;0.00;;;20.30;47.30;;;;;;5381485;26;20214;-49
2024/04/20 09:06:53;;;;;;;0.10;0.10;;;20.30;47.30;;;;;;5380563;26;20278;-49
2024/04/20 09:09:26;;;;;;;0.08;0.08;;;20.30;47.30;;;;;;5379164;26;20229;-49
2024/04/20 09:11:59;;;;;;;0.08;0.08;;;20.30;47.30;;;;;;5377235;26;20226;-47
2024/04/20 09:14:31;;;;;;;0.10;0.10;;;20.30;47.30;;;;;;5381442;26;20218;-46
2024/04/20 09:17:03;;;;;;;0.10;0.10;;;20.20;47.30;;;;;;5381573;26;20218;-46
2024/04/20 09:19:35;;;;;;;0.00;0.00;;;20.30;47.30;;;;;;5380987;26;20707;-47
2024/04/20 09:22:17;;;;;;;0.00;0.00;;;20.20;47.30;;;;;;5381899;26;20831;-47
2024/04/20 09:24:49;;;;;;;0.00;0.00;;;20.20;47.30;;;;;;5381382;26;20218;-47
2024/04/20 09:27:19;;;;;;;0.00;0.00;;;20.20;47.30;;;;;;5381105;26;20458;-47
2024/04/20 09:29:51;;;;;;;0.08;0.08;;;20.20;47.40;;;;;;5381230;26;20218;-46
2024/04/20 09:32:27;;;;;;;0.00;0.00;;;20.20;47.30;;;;;;5381639;26;20249;-48
2024/04/20 09:35:00;;;;;;;0.00;0.00;;;20.20;47.30;;;;;;5381368;26;20221;-47
2024/04/20 09:37:35;;;;;;;0.00;0.00;;;20.10;47.30;;;;;;5380516;26;20219;-46
2024/04/20 09:40:08;;;;;;;0.00;0.00;;;20.10;47.30;;;;;;5380278;26;20214;-46
2024/04/20 09:42:45;;;;;;;0.00;0.00;;;20.10;47.30;;;;;;5380329;26;20241;-50
2024/04/20 09:45:17;;;;;;;0.00;0.00;;;20.10;47.40;;;;;;5379761;26;20226;-46
2024/04/20 09:47:50;;;;;;;0.00;0.00;;;20.10;47.40;;;;;;5380437;26;20230;-45
2024/04/20 09:50:24;;;;;;;0.10;0.10;;;20.10;47.40;;;;;;5345775;26;20318;-49
2024/04/20 09:53:05;;;;;;;0.08;0.08;;;20.10;47.40;;;;;;5345485;26;20216;-50
2024/04/20 09:55:39;;;;;;;0.00;0.00;;;20.10;47.40;;;;;;5344716;26;20269;-46
2024/04/20 09:58:13;;;;;;;0.10;0.10;;;20.10;47.40;;;;;;5378337;21;20298;-46
2024/04/20 10:00:46;;;;;;;0.10;0.10;;;20.10;47.40;;;;;;5401711;26;20669;-50
2024/04/20 10:03:18;;;;;;;0.00;0.00;;;20.10;47.90;;;;;;5391303;26;20242;-53
2024/04/20 10:05:49;;;;;;;0.10;0.10;;;20.10;48.80;;;;;;5373383;26;20230;-46
2024/04/20 10:08:25;;;;;;;0.10;0.10;;;20.10;49.10;;;;;;5401149;26;20283;-48
2024/04/20 10:10:58;;;;;;;0.00;0.00;;;20.10;49.30;;;;;;5378291;26;20760;-47
2024/04/20 10:13:32;;;;;;;0.00;0.00;;;20.20;49.30;;;;;;5374858;26;20677;-48
2024/04/20 10:16:05;;;;;;;0.00;0.00;;;20.20;49.20;;;;;;5376644;26;20554;-51
2024/04/20 10:18:38;;;;;;;0.03;0.03;;;20.20;49.20;;;;;;5375907;26;20638;-52
2024/04/20 10:21:15;;;;;;;0.00;0.00;;;20.30;49.20;;;;;;5341385;26;20276;-46
2024/04/20 10:23:51;;;;;;;0.08;0.08;;;20.30;49.20;;;;;;5361627;26;20226;-50
2024/04/20 10:26:32;;;;;;;0.03;0.03;;;20.30;49.20;;;;;;5375988;26;20730;-48
2024/04/20 10:29:11;;;;;;;0.00;0.00;;;20.30;49.20;;;;;;5374582;26;20627;-48
2024/04/20 10:31:44;;;;;;;0.10;0.10;;;20.30;49.10;;;;;;5375284;26;20269;-49
2024/04/20 10:34:27;;;;;;;0.10;0.10;;;20.30;49.10;;;;;;5374989;26;20575;-50
2024/04/20 10:37:02;;;;;;;0.00;0.00;;;20.40;49.10;;;;;;5374856;26;20265;-49
2024/04/20 10:39:38;;;;;;;0.08;0.08;;;20.40;49.40;;;;;;5375806;26;20230;-46
2024/04/20 10:42:08;;;;;;;0.10;0.10;;;20.40;49.10;;;;;;5374474;26;20222;-46
2024/04/20 10:44:40;;;;;;;0.00;0.00;;;20.40;49.00;;;;;;5375386;26;20556;-48
2024/04/20 10:47:20;;;;;;;0.00;0.00;;;20.40;49.00;;;;;;5359247;26;20256;-47
2024/04/20 10:49:54;;;;;;;0.00;0.00;;;20.40;48.90;;;;;;5375223;26;20225;-48
2024/04/20 10:52:27;;;;;;;0.00;0.00;;;20.40;48.80;;;;;;5374723;26;20768;-47
2024/04/20 10:55:03;;;;;;;0.00;0.00;;;20.40;48.80;;;;;;5375577;26;20222;-46
2024/04/20 10:57:37;;;;;;;0.00;0.00;;;20.40;48.80;;;;;;5409992;26;20647;-46
2024/04/20 11:00:10;;;;;;;0.00;0.00;;;20.40;48.80;;;;;;5411087;26;20608;-47
2024/04/20 11:02:42;;;;;;;0.00;0.00;;;20.40;48.70;;;;;;5385975;26;20234;-45
2024/04/20 11:05:15;;;;;;;0.00;0.00;;;20.40;48.70;;;;;;5374674;26;20222;-48
2024/04/20 11:07:47;;;;;;;0.03;0.03;;;20.40;48.70;;;;;;5372776;26;20742;-51
2024/04/20 11:10:24;;;;;;;0.10;0.10;;;20.40;48.60;;;;;;5375373;26;20218;-46
2024/04/20 11:13:05;;;;;;;0.00;0.00;;;20.40;48.60;;;;;;5375655;26;20787;-50
2024/04/20 11:15:38;;;;;;;0.08;0.08;;;20.40;48.60;;;;;;5373843;26;20210;-48
2024/04/20 11:18:12;;;;;;;0.00;0.00;;;20.40;48.50;;;;;;5374864;26;20226;-48
2024/04/20 11:20:44;;;;;;;0.00;0.00;;;20.40;48.50;;;;;;5374289;26;20257;-46
2024/04/20 11:23:18;;;;;;;0.00;0.00;;;20.40;48.50;;;;;;5375309;26;20325;-46
2024/04/20 11:26:00;;;;;;;0.00;0.00;;;20.40;48.50;;;;;;5374468;26;20339;-49
2024/04/20 11:28:32;;;;;;;0.00;0.00;;;20.30;48.40;;;;;;5375507;26;20234;-47
2024/04/20 11:31:06;;;;;;;0.10;0.10;;;20.40;48.50;;;;;;5374086;26;20234;-50
2024/04/20 11:33:38;;;;;;;0.00;0.00;;;20.40;48.50;;;;;;5375187;26;20222;-47
2024/04/20 11:36:11;;;;;;;0.08;0.08;;;20.40;48.50;;;;;;5374225;26;20218;-50
2024/04/20 11:38:43;;;;;;;0.00;0.00;;;20.40;48.50;;;;;;5374292;26;21239;-48
2024/04/20 11:41:24;;;;;;;0.00;0.00;;;20.40;48.40;;;;;;5373971;26;20278;-50
2024/04/20 11:44:06;;;;;;;0.00;0.00;;;20.40;48.40;;;;;;5372800;26;20230;-49
2024/04/20 11:46:42;;;;;;;0.00;0.00;;;20.40;48.40;;;;;;5374814;26;20214;-47
2024/04/20 11:49:18;;;;;;;0.00;0.00;;;20.40;48.40;;;;;;5374667;26;20222;-50
2024/04/20 11:54:50;;;;;;;0.10;0.10;;;20.30;48.30;;;;;;5375991;26;20280;-49
2024/04/20 11:57:35;;;;;;;0.00;0.00;;;20.30;48.20;;;;;;5405764;26;20222;-47
2024/04/20 12:00:10;;;;;;;0.03;0.03;;;20.30;48.30;;;;;;5409654;26;20389;-51
2024/04/20 12:02:42;;;;;;;0.00;0.00;;;20.30;48.20;;;;;;5409498;26;20247;-50
2024/04/20 12:05:15;;;;;;;0.00;0.00;;;20.30;48.30;;;;;;5408324;26;20216;-48
2024/04/20 12:07:47;;;;;;;0.00;0.00;;;20.30;48.30;;;;;;5390695;26;20326;-51
2024/04/20 12:10:19;;;;;;;0.00;0.00;;;20.30;48.30;;;;;;5374113;26;20741;-48
2024/04/20 12:12:55;;;;;;;0.00;0.00;;;20.30;48.20;;;;;;5372338;26;20568;-49
2024/04/20 12:15:27;;;;;;;0.00;0.00;;;20.30;48.20;;;;;;5374908;26;20571;-52
2024/04/20 12:17:59;;;;;;;0.00;0.00;;;20.30;48.20;;;;;;5374160;26;20351;-51
2024/04/20 12:20:32;;;;;;;0.00;0.00;;;20.30;48.20;;;;;;5378860;26;20226;-51
2024/04/20 12:23:04;;;;;;;0.08;0.08;;;20.30;48.20;;;;;;5347236;26;20271;-50
2024/04/20 12:25:36;;;;;;;0.08;0.08;;;20.30;48.20;;;;;;5347424;26;20290;-51
2024/04/20 12:28:12;;;;;;;0.10;0.10;;;20.20;48.10;;;;;;5346667;26;20344;-52
2024/04/20 12:30:44;;;;;;;0.03;0.03;;;20.20;48.20;;;;;;5346269;26;20253;-47
2024/04/20 12:33:17;;;;;;;0.00;0.00;;;20.30;48.20;;;;;;5347413;26;20702;-47
2024/04/20 12:35:50;;;;;;;0.10;0.10;;;20.20;48.20;;;;;;5347583;26;20303;-52
2024/04/20 12:38:22;;;;;;;0.00;0.00;;;20.20;48.20;;;;;;5346573;26;20274;-50
2024/04/20 12:40:55;;;;;;;0.10;0.10;;;20.20;48.20;;;;;;5377982;26;20307;-52
2024/04/20 12:43:30;;;;;;;0.00;0.00;;;20.20;48.20;;;;;;5381337;26;20714;-48
2024/04/20 12:46:02;;;;;;;0.10;0.10;;;20.20;48.20;;;;;;5381348;26;20310;-46
2024/04/20 12:48:35;;;;;;;0.10;0.10;;;20.20;48.20;;;;;;5380811;26;20230;-47
2024/04/20 12:51:07;;;;;;;0.10;0.10;;;20.20;48.20;;;;;;5377464;26;20233;-48
2024/04/20 12:53:40;;;;;;;0.10;0.10;;;20.20;48.20;;;;;;5380610;26;20226;-50
2024/04/20 12:56:12;;;;;;;0.10;0.10;;;20.20;48.20;;;;;;5380674;26;20307;-48
2024/04/20 12:58:48;;;;;;;0.10;0.10;;;20.20;48.30;;;;;;5397370;21;20295;-46
2024/04/20 13:01:20;;;;;;;0.10;0.10;;;20.20;48.20;;;;;;5401155;26;20218;-46
2024/04/20 13:03:54;;;;;;;0.10;0.10;;;20.20;48.70;;;;;;5399980;26;20312;-46
2024/04/20 13:06:27;;;;;;;0.10;0.10;;;20.20;48.20;;;;;;5398134;26;20257;-46
2024/04/20 13:08:59;;;;;;;0.10;0.10;;;20.20;48.20;;;;;;5396616;26;20331;-46
2024/04/20 13:11:31;;;;;;;0.00;0.00;;;20.20;48.20;;;;;;5414575;26;20218;-46
2024/04/20 13:14:06;;;;;;;0.10;0.10;;;20.20;48.20;;;;;;5396281;26;20230;-46
2024/04/20 13:16:39;;;;;;;0.00;0.00;;;20.20;48.20;;;;;;5409454;26;20331;-46
2024/04/20 13:19:12;;;;;;;0.10;0.10;;;20.20;48.20;;;;;;5417309;26;20584;-45
2024/04/20 13:21:44;;;;;;;0.10;0.10;;;20.20;48.20;;;;;;5417230;26;20217;-45